sensor_id;sensor_type;location;lat;lon;timestamp;temperature;humidity
51029;DHT22;37054;52.054;8.600;2023-07-28T00:02:06;22.30;72.70
51029;DHT22;37054;52.054;8.600;2023-07-28T00:04:33;22.30;72.80
51029;DHT22;37054;52.054;8.600;2023-07-28T00:06:59;22.30;72.90
51029;DHT22;37054;52.054;8.600;2023-07-28T00:09:24;22.20;72.90
51029;DHT22;37054;52.054;8.600;2023-07-28T00:11:50;22.20;73.00
51029;DHT22;37054;52.054;8.600;2023-07-28T00:14:15;22.20;73.00
51029;DHT22;37054;52.054;8.600;2023-07-28T00:16:41;22.20;73.00
51029;DHT22;37054;52.054;8.600;2023-07-28T00:19:06;22.20;73.00
51029;DHT22;37054;52.054;8.600;2023-07-28T00:21:31;22.20;73.00
51029;DHT22;37054;52.054;8.600;2023-07-28T00:23:57;22.20;73.00
51029;DHT22;37054;52.054;8.600;2023-07-28T00:26:22;22.10;73.10
51029;DHT22;37054;52.054;8.600;2023-07-28T00:28:48;22.20;73.00
51029;DHT22;37054;52.054;8.600;2023-07-28T00:31:13;22.10;73.10
51029;DHT22;37054;52.054;8.600;2023-07-28T00:33:39;22.10;73.20
51029;DHT22;37054;52.054;8.600;2023-07-28T00:36:04;22.10;73.20
51029;DHT22;37054;52.054;8.600;2023-07-28T00:38:30;22.10;73.20
51029;DHT22;37054;52.054;8.600;2023-07-28T00:40:55;22.10;73.20
51029;DHT22;37054;52.054;8.600;2023-07-28T00:43:21;22.10;73.10
51029;DHT22;37054;52.054;8.600;2023-07-28T00:45:46;22.20;73.10
51029;DHT22;37054;52.054;8.600;2023-07-28T00:48:12;22.20;73.10
51029;DHT22;37054;52.054;8.600;2023-07-28T00:50:39;22.20;73.00
51029;DHT22;37054;52.054;8.600;2023-07-28T00:53:04;22.20;73.00
51029;DHT22;37054;52.054;8.600;2023-07-28T00:55:30;22.20;72.90
51029;DHT22;37054;52.054;8.600;2023-07-28T00:57:56;22.10;73.00
51029;DHT22;37054;52.054;8.600;2023-07-28T01:00:22;22.20;73.10
51029;DHT22;37054;52.054;8.600;2023-07-28T01:02:47;22.20;73.10
51029;DHT22;37054;52.054;8.600;2023-07-28T01:05:13;22.20;73.00
51029;DHT22;37054;52.054;8.600;2023-07-28T01:07:47;22.20;73.00
51029;DHT22;37054;52.054;8.600;2023-07-28T01:10:18;22.10;73.00
51029;DHT22;37054;52.054;8.600;2023-07-28T01:12:44;22.20;73.00
51029;DHT22;37054;52.054;8.600;2023-07-28T01:15:09;22.10;73.00
51029;DHT22;37054;52.054;8.600;2023-07-28T01:17:35;22.20;72.90
51029;DHT22;37054;52.054;8.600;2023-07-28T01:20:00;22.20;73.00
51029;DHT22;37054;52.054;8.600;2023-07-28T01:25:18;22.10;72.90
51029;DHT22;37054;52.054;8.600;2023-07-28T01:27:45;22.10;73.00
51029;DHT22;37054;52.054;8.600;2023-07-28T01:30:11;22.10;73.00
51029;DHT22;37054;52.054;8.600;2023-07-28T01:32:37;22.10;73.10
51029;DHT22;37054;52.054;8.600;2023-07-28T01:35:03;22.10;73.20
51029;DHT22;37054;52.054;8.600;2023-07-28T01:37:29;22.10;73.20
51029;DHT22;37054;52.054;8.600;2023-07-28T01:39:54;22.00;73.20
51029;DHT22;37054;52.054;8.600;2023-07-28T01:42:20;22.10;73.20
51029;DHT22;37054;52.054;8.600;2023-07-28T01:44:45;22.10;73.10
51029;DHT22;37054;52.054;8.600;2023-07-28T01:47:11;22.10;73.20
51029;DHT22;37054;52.054;8.600;2023-07-28T01:49:36;22.10;73.10
51029;DHT22;37054;52.054;8.600;2023-07-28T01:52:02;22.10;73.10
51029;DHT22;37054;52.054;8.600;2023-07-28T01:54:27;22.10;73.10
51029;DHT22;37054;52.054;8.600;2023-07-28T01:56:53;22.10;73.10
51029;DHT22;37054;52.054;8.600;2023-07-28T01:59:18;22.10;73.10
51029;DHT22;37054;52.054;8.600;2023-07-28T02:01:45;22.10;73.10
51029;DHT22;37054;52.054;8.600;2023-07-28T02:04:11;22.10;73.20
51029;DHT22;37054;52.054;8.600;2023-07-28T02:06:36;22.10;73.20
51029;DHT22;37054;52.054;8.600;2023-07-28T02:09:02;22.00;73.10
51029;DHT22;37054;52.054;8.600;2023-07-28T02:11:27;22.10;73.20
51029;DHT22;37054;52.054;8.600;2023-07-28T02:13:53;22.10;73.20
51029;DHT22;37054;52.054;8.600;2023-07-28T02:16:18;22.10;73.20
51029;DHT22;37054;52.054;8.600;2023-07-28T02:18:44;22.10;73.10
51029;DHT22;37054;52.054;8.600;2023-07-28T02:21:09;22.10;73.10
51029;DHT22;37054;52.054;8.600;2023-07-28T02:23:35;22.10;73.10
51029;DHT22;37054;52.054;8.600;2023-07-28T02:26:00;22.10;73.20
51029;DHT22;37054;52.054;8.600;2023-07-28T02:28:26;22.10;73.10
51029;DHT22;37054;52.054;8.600;2023-07-28T02:30:51;22.10;73.10
51029;DHT22;37054;52.054;8.600;2023-07-28T02:33:17;22.10;73.10
51029;DHT22;37054;52.054;8.600;2023-07-28T02:35:42;22.10;73.10
51029;DHT22;37054;52.054;8.600;2023-07-28T02:38:08;22.10;73.20
51029;DHT22;37054;52.054;8.600;2023-07-28T02:40:33;22.10;73.10
51029;DHT22;37054;52.054;8.600;2023-07-28T02:42:59;22.10;73.10
51029;DHT22;37054;52.054;8.600;2023-07-28T02:45:25;22.10;73.20
51029;DHT22;37054;52.054;8.600;2023-07-28T02:47:50;22.10;73.10
51029;DHT22;37054;52.054;8.600;2023-07-28T02:50:16;22.10;73.10
51029;DHT22;37054;52.054;8.600;2023-07-28T02:52:41;22.10;73.20
51029;DHT22;37054;52.054;8.600;2023-07-28T02:55:07;22.10;73.20
51029;DHT22;37054;52.054;8.600;2023-07-28T02:57:33;22.10;73.20
51029;DHT22;37054;52.054;8.600;2023-07-28T02:59:58;22.10;73.00
51029;DHT22;37054;52.054;8.600;2023-07-28T03:02:24;22.10;73.10
51029;DHT22;37054;52.054;8.600;2023-07-28T03:04:49;22.10;73.10
51029;DHT22;37054;52.054;8.600;2023-07-28T03:07:15;22.00;73.10
51029;DHT22;37054;52.054;8.600;2023-07-28T03:09:40;22.00;73.10
51029;DHT22;37054;52.054;8.600;2023-07-28T03:12:06;22.00;73.10
51029;DHT22;37054;52.054;8.600;2023-07-28T03:14:32;22.00;73.20
51029;DHT22;37054;52.054;8.600;2023-07-28T03:16:57;22.00;73.20
51029;DHT22;37054;52.054;8.600;2023-07-28T03:19:23;22.00;73.20
51029;DHT22;37054;52.054;8.600;2023-07-28T03:21:48;22.00;73.10
51029;DHT22;37054;52.054;8.600;2023-07-28T03:24:14;22.10;73.10
51029;DHT22;37054;52.054;8.600;2023-07-28T03:26:39;22.00;73.00
51029;DHT22;37054;52.054;8.600;2023-07-28T03:29:04;22.10;73.00
51029;DHT22;37054;52.054;8.600;2023-07-28T03:31:30;22.10;73.00
51029;DHT22;37054;52.054;8.600;2023-07-28T03:33:55;22.10;73.00
51029;DHT22;37054;52.054;8.600;2023-07-28T03:36:21;22.10;73.10
51029;DHT22;37054;52.054;8.600;2023-07-28T03:38:46;22.10;73.00
51029;DHT22;37054;52.054;8.600;2023-07-28T03:41:12;22.20;73.00
51029;DHT22;37054;52.054;8.600;2023-07-28T03:43:38;22.20;72.90
51029;DHT22;37054;52.054;8.600;2023-07-28T03:46:03;22.20;72.90
51029;DHT22;37054;52.054;8.600;2023-07-28T03:48:29;22.20;72.90
51029;DHT22;37054;52.054;8.600;2023-07-28T03:50:57;22.30;72.90
51029;DHT22;37054;52.054;8.600;2023-07-28T03:53:25;22.30;72.90
51029;DHT22;37054;52.054;8.600;2023-07-28T03:55:51;22.30;72.80
51029;DHT22;37054;52.054;8.600;2023-07-28T03:58:16;22.30;72.80
51029;DHT22;37054;52.054;8.600;2023-07-28T04:00:42;22.30;72.80
51029;DHT22;37054;52.054;8.600;2023-07-28T04:03:07;22.30;72.80
51029;DHT22;37054;52.054;8.600;2023-07-28T04:05:32;22.30;72.70
51029;DHT22;37054;52.054;8.600;2023-07-28T04:07:58;22.30;72.70
51029;DHT22;37054;52.054;8.600;2023-07-28T04:10:23;22.30;72.50
51029;DHT22;37054;52.054;8.600;2023-07-28T04:12:49;22.30;72.80
51029;DHT22;37054;52.054;8.600;2023-07-28T04:15:14;22.40;72.70
51029;DHT22;37054;52.054;8.600;2023-07-28T04:17:40;22.40;72.60
51029;DHT22;37054;52.054;8.600;2023-07-28T04:20:05;22.40;72.70
51029;DHT22;37054;52.054;8.600;2023-07-28T04:22:31;22.40;72.60
51029;DHT22;37054;52.054;8.600;2023-07-28T04:24:56;22.40;72.60
51029;DHT22;37054;52.054;8.600;2023-07-28T04:27:22;22.40;72.50
51029;DHT22;37054;52.054;8.600;2023-07-28T04:29:47;22.40;72.60
51029;DHT22;37054;52.054;8.600;2023-07-28T04:32:13;22.40;72.70
51029;DHT22;37054;52.054;8.600;2023-07-28T04:34:38;22.50;72.70
51029;DHT22;37054;52.054;8.600;2023-07-28T04:37:04;22.50;72.70
51029;DHT22;37054;52.054;8.600;2023-07-28T04:39:29;22.50;72.70
51029;DHT22;37054;52.054;8.600;2023-07-28T04:41:55;22.50;72.70
51029;DHT22;37054;52.054;8.600;2023-07-28T04:44:20;22.50;72.70
51029;DHT22;37054;52.054;8.600;2023-07-28T04:46:45;22.40;72.60
51029;DHT22;37054;52.054;8.600;2023-07-28T04:49:14;22.40;72.90
51029;DHT22;37054;52.054;8.600;2023-07-28T04:51:40;22.40;72.90
51029;DHT22;37054;52.054;8.600;2023-07-28T04:54:05;22.40;72.90
51029;DHT22;37054;52.054;8.600;2023-07-28T04:56:30;22.40;72.90
51029;DHT22;37054;52.054;8.600;2023-07-28T04:58:56;22.40;72.80
51029;DHT22;37054;52.054;8.600;2023-07-28T05:01:23;22.40;73.00
51029;DHT22;37054;52.054;8.600;2023-07-28T05:03:49;22.40;73.10
51029;DHT22;37054;52.054;8.600;2023-07-28T05:06:14;22.40;73.00
51029;DHT22;37054;52.054;8.600;2023-07-28T05:08:40;22.50;72.90
51029;DHT22;37054;52.054;8.600;2023-07-28T05:11:05;22.50;73.00
51029;DHT22;37054;52.054;8.600;2023-07-28T05:13:31;22.50;73.00
51029;DHT22;37054;52.054;8.600;2023-07-28T05:15:56;22.60;73.10
51029;DHT22;37054;52.054;8.600;2023-07-28T05:18:22;22.60;73.20
51029;DHT22;37054;52.054;8.600;2023-07-28T05:20:47;22.60;73.10
51029;DHT22;37054;52.054;8.600;2023-07-28T05:23:12;22.70;73.00
51029;DHT22;37054;52.054;8.600;2023-07-28T05:25:38;22.70;73.10
51029;DHT22;37054;52.054;8.600;2023-07-28T05:28:03;22.70;73.00
51029;DHT22;37054;52.054;8.600;2023-07-28T05:30:29;22.80;73.00
51029;DHT22;37054;52.054;8.600;2023-07-28T05:32:54;22.70;73.00
51029;DHT22;37054;52.054;8.600;2023-07-28T05:35:20;22.80;73.10
51029;DHT22;37054;52.054;8.600;2023-07-28T05:37:46;22.80;73.20
51029;DHT22;37054;52.054;8.600;2023-07-28T05:40:11;22.90;73.10
51029;DHT22;37054;52.054;8.600;2023-07-28T05:42:37;23.00;73.10
51029;DHT22;37054;52.054;8.600;2023-07-28T05:45:03;23.00;73.00
51029;DHT22;37054;52.054;8.600;2023-07-28T05:47:28;23.10;73.10
51029;DHT22;37054;52.054;8.600;2023-07-28T05:49:54;23.20;73.10
51029;DHT22;37054;52.054;8.600;2023-07-28T05:52:19;23.20;72.90
51029;DHT22;37054;52.054;8.600;2023-07-28T05:54:45;23.20;72.90
51029;DHT22;37054;52.054;8.600;2023-07-28T05:57:10;23.30;72.80
51029;DHT22;37054;52.054;8.600;2023-07-28T05:59:36;23.30;73.00
51029;DHT22;37054;52.054;8.600;2023-07-28T06:02:01;23.30;72.90
51029;DHT22;37054;52.054;8.600;2023-07-28T06:04:27;23.40;72.80
51029;DHT22;37054;52.054;8.600;2023-07-28T06:06:54;23.40;72.80
51029;DHT22;37054;52.054;8.600;2023-07-28T06:09:20;23.50;72.70
51029;DHT22;37054;52.054;8.600;2023-07-28T06:11:45;23.50;72.80
51029;DHT22;37054;52.054;8.600;2023-07-28T06:14:10;23.70;72.70
51029;DHT22;37054;52.054;8.600;2023-07-28T06:16:36;23.70;72.60
51029;DHT22;37054;52.054;8.600;2023-07-28T06:19:01;23.60;72.50
51029;DHT22;37054;52.054;8.600;2023-07-28T06:21:27;23.60;72.50
51029;DHT22;37054;52.054;8.600;2023-07-28T06:23:52;23.60;72.50
51029;DHT22;37054;52.054;8.600;2023-07-28T06:26:18;23.60;72.40
51029;DHT22;37054;52.054;8.600;2023-07-28T06:28:44;23.60;72.40
51029;DHT22;37054;52.054;8.600;2023-07-28T06:31:10;23.60;72.30
51029;DHT22;37054;52.054;8.600;2023-07-28T06:33:35;23.60;72.30
51029;DHT22;37054;52.054;8.600;2023-07-28T06:36:02;23.50;72.40
51029;DHT22;37054;52.054;8.600;2023-07-28T06:38:27;23.50;72.40
51029;DHT22;37054;52.054;8.600;2023-07-28T06:40:53;23.50;72.70
51029;DHT22;37054;52.054;8.600;2023-07-28T06:43:18;23.50;72.70
51029;DHT22;37054;52.054;8.600;2023-07-28T06:45:45;23.50;72.70
51029;DHT22;37054;52.054;8.600;2023-07-28T06:48:10;23.50;72.70
51029;DHT22;37054;52.054;8.600;2023-07-28T06:50:36;23.50;72.80
51029;DHT22;37054;52.054;8.600;2023-07-28T06:53:01;23.50;72.90
51029;DHT22;37054;52.054;8.600;2023-07-28T06:55:27;23.50;72.90
51029;DHT22;37054;52.054;8.600;2023-07-28T06:57:52;23.60;73.10
51029;DHT22;37054;52.054;8.600;2023-07-28T07:00:17;23.70;73.10
51029;DHT22;37054;52.054;8.600;2023-07-28T07:02:43;23.70;73.10
51029;DHT22;37054;52.054;8.600;2023-07-28T07:05:09;23.80;73.00
51029;DHT22;37054;52.054;8.600;2023-07-28T07:07:34;23.90;73.00
51029;DHT22;37054;52.054;8.600;2023-07-28T07:09:59;24.00;72.90
51029;DHT22;37054;52.054;8.600;2023-07-28T07:12:25;24.10;73.10
51029;DHT22;37054;52.054;8.600;2023-07-28T07:14:51;24.20;73.20
51029;DHT22;37054;52.054;8.600;2023-07-28T07:17:16;24.30;72.80
51029;DHT22;37054;52.054;8.600;2023-07-28T07:19:41;24.30;72.70
51029;DHT22;37054;52.054;8.600;2023-07-28T07:22:07;24.30;72.70
51029;DHT22;37054;52.054;8.600;2023-07-28T07:24:32;24.30;72.90
51029;DHT22;37054;52.054;8.600;2023-07-28T07:26:58;24.30;72.70
51029;DHT22;37054;52.054;8.600;2023-07-28T07:29:23;24.30;72.80
51029;DHT22;37054;52.054;8.600;2023-07-28T07:31:49;24.30;72.70
51029;DHT22;37054;52.054;8.600;2023-07-28T07:34:20;24.30;72.70
51029;DHT22;37054;52.054;8.600;2023-07-28T07:36:45;24.40;72.90
51029;DHT22;37054;52.054;8.600;2023-07-28T07:39:11;24.50;72.70
51029;DHT22;37054;52.054;8.600;2023-07-28T07:41:36;24.50;72.70
51029;DHT22;37054;52.054;8.600;2023-07-28T07:44:02;24.50;72.80
51029;DHT22;37054;52.054;8.600;2023-07-28T07:46:27;24.70;72.70
51029;DHT22;37054;52.054;8.600;2023-07-28T07:48:53;24.70;72.60
51029;DHT22;37054;52.054;8.600;2023-07-28T07:51:18;24.80;72.70
51029;DHT22;37054;52.054;8.600;2023-07-28T07:53:44;24.80;72.30
51029;DHT22;37054;52.054;8.600;2023-07-28T07:56:09;24.90;72.70
51029;DHT22;37054;52.054;8.600;2023-07-28T07:58:35;25.00;72.40
51029;DHT22;37054;52.054;8.600;2023-07-28T08:01:00;25.10;72.70
51029;DHT22;37054;52.054;8.600;2023-07-28T08:03:26;25.20;72.50
51029;DHT22;37054;52.054;8.600;2023-07-28T08:05:52;25.20;72.50
51029;DHT22;37054;52.054;8.600;2023-07-28T08:08:18;25.30;72.70
51029;DHT22;37054;52.054;8.600;2023-07-28T08:10:48;25.50;72.70
51029;DHT22;37054;52.054;8.600;2023-07-28T08:13:14;25.80;73.10
51029;DHT22;37054;52.054;8.600;2023-07-28T08:15:39;26.10;72.60
51029;DHT22;37054;52.054;8.600;2023-07-28T08:18:04;26.40;72.70
51029;DHT22;37054;52.054;8.600;2023-07-28T08:20:30;26.70;72.80
51029;DHT22;37054;52.054;8.600;2023-07-28T08:22:55;26.90;72.80
51029;DHT22;37054;52.054;8.600;2023-07-28T08:25:21;27.30;73.20
51029;DHT22;37054;52.054;8.600;2023-07-28T08:27:48;27.70;72.70
51029;DHT22;37054;52.054;8.600;2023-07-28T08:30:13;28.10;72.80
51029;DHT22;37054;52.054;8.600;2023-07-28T08:32:41;28.40;72.40
51029;DHT22;37054;52.054;8.600;2023-07-28T08:35:06;28.70;72.30
51029;DHT22;37054;52.054;8.600;2023-07-28T08:37:33;28.80;71.90
51029;DHT22;37054;52.054;8.600;2023-07-28T08:39:59;29.10;72.10
51029;DHT22;37054;52.054;8.600;2023-07-28T08:42:24;29.50;73.10
51029;DHT22;37054;52.054;8.600;2023-07-28T08:44:50;30.00;73.40
51029;DHT22;37054;52.054;8.600;2023-07-28T08:47:17;30.50;72.50
51029;DHT22;37054;52.054;8.600;2023-07-28T08:49:43;30.80;71.30
51029;DHT22;37054;52.054;8.600;2023-07-28T08:52:08;31.00;70.50
51029;DHT22;37054;52.054;8.600;2023-07-28T08:54:34;31.00;70.20
51029;DHT22;37054;52.054;8.600;2023-07-28T08:56:59;31.00;70.50
51029;DHT22;37054;52.054;8.600;2023-07-28T08:59:25;30.80;70.10
51029;DHT22;37054;52.054;8.600;2023-07-28T09:01:52;30.60;70.40
51029;DHT22;37054;52.054;8.600;2023-07-28T09:04:18;30.50;71.10
51029;DHT22;37054;52.054;8.600;2023-07-28T09:06:46;30.80;71.30
51029;DHT22;37054;52.054;8.600;2023-07-28T09:09:11;31.20;72.70
51029;DHT22;37054;52.054;8.600;2023-07-28T09:11:43;31.50;71.40
51029;DHT22;37054;52.054;8.600;2023-07-28T09:14:11;31.70;70.60
51029;DHT22;37054;52.054;8.600;2023-07-28T09:16:36;31.70;69.40
51029;DHT22;37054;52.054;8.600;2023-07-28T09:19:05;31.50;69.20
51029;DHT22;37054;52.054;8.600;2023-07-28T09:21:32;31.30;70.00
51029;DHT22;37054;52.054;8.600;2023-07-28T09:24:02;31.20;69.70
51029;DHT22;37054;52.054;8.600;2023-07-28T09:26:41;31.10;68.10
51029;DHT22;37054;52.054;8.600;2023-07-28T09:29:17;31.40;71.30
51029;DHT22;37054;52.054;8.600;2023-07-28T09:31:49;31.90;72.10
51029;DHT22;37054;52.054;8.600;2023-07-28T09:34:25;32.40;71.70
51029;DHT22;37054;52.054;8.600;2023-07-28T09:36:53;32.70;71.20
51029;DHT22;37054;52.054;8.600;2023-07-28T09:39:18;33.00;72.00
51029;DHT22;37054;52.054;8.600;2023-07-28T09:41:44;33.20;71.30
51029;DHT22;37054;52.054;8.600;2023-07-28T09:44:10;33.30;70.60
51029;DHT22;37054;52.054;8.600;2023-07-28T09:46:36;33.50;71.20
51029;DHT22;37054;52.054;8.600;2023-07-28T09:49:12;33.80;71.70
51029;DHT22;37054;52.054;8.600;2023-07-28T09:51:39;34.30;71.80
51029;DHT22;37054;52.054;8.600;2023-07-28T09:54:12;34.70;70.20
51029;DHT22;37054;52.054;8.600;2023-07-28T09:56:40;35.20;69.80
51029;DHT22;37054;52.054;8.600;2023-07-28T09:59:10;35.80;68.10
51029;DHT22;37054;52.054;8.600;2023-07-28T10:01:36;36.20;67.10
51029;DHT22;37054;52.054;8.600;2023-07-28T10:04:02;36.70;66.60
51029;DHT22;37054;52.054;8.600;2023-07-28T10:06:28;37.00;64.50
51029;DHT22;37054;52.054;8.600;2023-07-28T10:08:55;37.20;65.00
51029;DHT22;37054;52.054;8.600;2023-07-28T10:11:20;37.30;63.30
51029;DHT22;37054;52.054;8.600;2023-07-28T10:13:46;37.40;62.00
51029;DHT22;37054;52.054;8.600;2023-07-28T10:16:12;37.30;62.40
51029;DHT22;37054;52.054;8.600;2023-07-28T10:18:40;36.90;57.40
51029;DHT22;37054;52.054;8.600;2023-07-28T10:21:10;36.30;56.30
51029;DHT22;37054;52.054;8.600;2023-07-28T10:23:38;35.80;56.50
51029;DHT22;37054;52.054;8.600;2023-07-28T10:26:04;35.30;56.90
51029;DHT22;37054;52.054;8.600;2023-07-28T10:28:36;35.10;57.00
51029;DHT22;37054;52.054;8.600;2023-07-28T10:31:07;34.90;58.10
51029;DHT22;37054;52.054;8.600;2023-07-28T10:33:37;34.80;56.90
51029;DHT22;37054;52.054;8.600;2023-07-28T10:36:14;34.60;55.00
51029;DHT22;37054;52.054;8.600;2023-07-28T10:38:39;34.50;55.50
51029;DHT22;37054;52.054;8.600;2023-07-28T10:41:15;34.60;56.00
51029;DHT22;37054;52.054;8.600;2023-07-28T10:43:41;34.50;51.70
51029;DHT22;37054;52.054;8.600;2023-07-28T10:46:08;34.30;51.50
51029;DHT22;37054;52.054;8.600;2023-07-28T10:48:34;34.30;52.70
51029;DHT22;37054;52.054;8.600;2023-07-28T10:50:59;34.40;52.70
51029;DHT22;37054;52.054;8.600;2023-07-28T10:53:25;34.50;52.90
51029;DHT22;37054;52.054;8.600;2023-07-28T10:55:52;34.40;51.00
51029;DHT22;37054;52.054;8.600;2023-07-28T10:58:17;34.20;48.50
51029;DHT22;37054;52.054;8.600;2023-07-28T11:00:44;33.60;50.40
51029;DHT22;37054;52.054;8.600;2023-07-28T11:03:09;33.00;52.60
51029;DHT22;37054;52.054;8.600;2023-07-28T11:05:35;32.50;55.20
51029;DHT22;37054;52.054;8.600;2023-07-28T11:08:01;32.10;56.80
51029;DHT22;37054;52.054;8.600;2023-07-28T11:10:31;31.80;57.80
51029;DHT22;37054;52.054;8.600;2023-07-28T11:13:00;31.50;59.70
51029;DHT22;37054;52.054;8.600;2023-07-28T11:15:26;31.40;59.80
51029;DHT22;37054;52.054;8.600;2023-07-28T11:17:52;31.30;60.50
51029;DHT22;37054;52.054;8.600;2023-07-28T11:20:21;31.50;60.90
51029;DHT22;37054;52.054;8.600;2023-07-28T11:22:58;31.90;60.90
51029;DHT22;37054;52.054;8.600;2023-07-28T11:25:24;32.50;60.40
51029;DHT22;37054;52.054;8.600;2023-07-28T11:27:50;32.90;60.20
51029;DHT22;37054;52.054;8.600;2023-07-28T11:30:16;33.30;59.10
51029;DHT22;37054;52.054;8.600;2023-07-28T11:32:42;33.70;55.80
51029;DHT22;37054;52.054;8.600;2023-07-28T11:35:09;34.10;53.70
51029;DHT22;37054;52.054;8.600;2023-07-28T11:37:35;34.40;53.00
51029;DHT22;37054;52.054;8.600;2023-07-28T11:40:01;34.70;52.90
51029;DHT22;37054;52.054;8.600;2023-07-28T11:42:28;35.10;52.90
51029;DHT22;37054;52.054;8.600;2023-07-28T11:44:54;35.50;54.30
51029;DHT22;37054;52.054;8.600;2023-07-28T11:47:19;35.90;51.40
51029;DHT22;37054;52.054;8.600;2023-07-28T11:49:49;36.20;48.70
51029;DHT22;37054;52.054;8.600;2023-07-28T11:52:16;36.40;49.10
51029;DHT22;37054;52.054;8.600;2023-07-28T11:54:41;36.70;50.10
51029;DHT22;37054;52.054;8.600;2023-07-28T11:57:07;37.10;49.50
51029;DHT22;37054;52.054;8.600;2023-07-28T11:59:34;37.40;46.00
51029;DHT22;37054;52.054;8.600;2023-07-28T12:02:00;37.50;45.80
51029;DHT22;37054;52.054;8.600;2023-07-28T12:04:27;37.60;42.20
51029;DHT22;37054;52.054;8.600;2023-07-28T12:07:05;37.60;42.30
51029;DHT22;37054;52.054;8.600;2023-07-28T12:12:11;37.80;41.40
51029;DHT22;37054;52.054;8.600;2023-07-28T12:14:37;38.00;42.80
51029;DHT22;37054;52.054;8.600;2023-07-28T12:17:03;38.30;43.40
51029;DHT22;37054;52.054;8.600;2023-07-28T12:19:28;38.70;43.00
51029;DHT22;37054;52.054;8.600;2023-07-28T12:21:54;38.90;42.30
51029;DHT22;37054;52.054;8.600;2023-07-28T12:24:19;39.10;42.20
51029;DHT22;37054;52.054;8.600;2023-07-28T12:26:46;39.00;40.00
51029;DHT22;37054;52.054;8.600;2023-07-28T12:29:11;38.80;40.30
51029;DHT22;37054;52.054;8.600;2023-07-28T12:31:37;38.70;38.80
51029;DHT22;37054;52.054;8.600;2023-07-28T12:34:02;38.60;38.60
51029;DHT22;37054;52.054;8.600;2023-07-28T12:36:28;38.50;38.80
51029;DHT22;37054;52.054;8.600;2023-07-28T12:38:53;38.40;38.80
51029;DHT22;37054;52.054;8.600;2023-07-28T12:41:18;38.50;38.60
51029;DHT22;37054;52.054;8.600;2023-07-28T12:43:44;38.50;36.70
51029;DHT22;37054;52.054;8.600;2023-07-28T12:46:10;38.30;38.80
51029;DHT22;37054;52.054;8.600;2023-07-28T12:48:35;38.40;38.90
51029;DHT22;37054;52.054;8.600;2023-07-28T12:51:01;38.30;38.80
51029;DHT22;37054;52.054;8.600;2023-07-28T12:53:26;38.00;38.80
51029;DHT22;37054;52.054;8.600;2023-07-28T12:55:52;37.90;37.70
51029;DHT22;37054;52.054;8.600;2023-07-28T12:58:17;37.80;37.60
51029;DHT22;37054;52.054;8.600;2023-07-28T13:00:43;37.80;37.40
51029;DHT22;37054;52.054;8.600;2023-07-28T13:03:08;37.80;37.10
51029;DHT22;37054;52.054;8.600;2023-07-28T13:05:34;37.80;37.40
51029;DHT22;37054;52.054;8.600;2023-07-28T13:08:00;37.80;35.90
51029;DHT22;37054;52.054;8.600;2023-07-28T13:10:26;37.70;35.90
51029;DHT22;37054;52.054;8.600;2023-07-28T13:12:51;37.80;36.10
51029;DHT22;37054;52.054;8.600;2023-07-28T13:15:16;38.00;37.60
51029;DHT22;37054;52.054;8.600;2023-07-28T13:17:42;38.10;36.20
51029;DHT22;37054;52.054;8.600;2023-07-28T13:20:08;38.20;35.70
51029;DHT22;37054;52.054;8.600;2023-07-28T13:22:34;38.20;35.90
51029;DHT22;37054;52.054;8.600;2023-07-28T13:24:59;38.10;35.60
51029;DHT22;37054;52.054;8.600;2023-07-28T13:27:25;37.90;36.10
51029;DHT22;37054;52.054;8.600;2023-07-28T13:29:50;37.80;37.10
51029;DHT22;37054;52.054;8.600;2023-07-28T13:32:23;37.80;37.00
51029;DHT22;37054;52.054;8.600;2023-07-28T13:34:48;38.00;37.60
51029;DHT22;37054;52.054;8.600;2023-07-28T13:37:14;38.20;36.50
51029;DHT22;37054;52.054;8.600;2023-07-28T13:39:41;38.30;36.10
51029;DHT22;37054;52.054;8.600;2023-07-28T13:42:06;38.30;36.10
51029;DHT22;37054;52.054;8.600;2023-07-28T13:44:32;38.50;35.20
51029;DHT22;37054;52.054;8.600;2023-07-28T13:46:57;38.50;34.60
51029;DHT22;37054;52.054;8.600;2023-07-28T13:49:23;38.40;35.10
51029;DHT22;37054;52.054;8.600;2023-07-28T13:51:48;38.60;35.00
51029;DHT22;37054;52.054;8.600;2023-07-28T13:54:14;38.70;34.90
51029;DHT22;37054;52.054;8.600;2023-07-28T13:56:39;38.80;35.10
51029;DHT22;37054;52.054;8.600;2023-07-28T13:59:05;38.70;33.40
51029;DHT22;37054;52.054;8.600;2023-07-28T14:01:31;38.80;34.40
51029;DHT22;37054;52.054;8.600;2023-07-28T14:03:57;38.70;34.10
51029;DHT22;37054;52.054;8.600;2023-07-28T14:06:23;38.30;33.90
51029;DHT22;37054;52.054;8.600;2023-07-28T14:08:48;38.10;34.70
51029;DHT22;37054;52.054;8.600;2023-07-28T14:11:14;38.10;35.00
51029;DHT22;37054;52.054;8.600;2023-07-28T14:13:39;38.30;34.90
51029;DHT22;37054;52.054;8.600;2023-07-28T14:16:05;38.60;34.20
51029;DHT22;37054;52.054;8.600;2023-07-28T14:18:30;38.80;34.70
51029;DHT22;37054;52.054;8.600;2023-07-28T14:20:56;39.20;33.70
51029;DHT22;37054;52.054;8.600;2023-07-28T14:23:22;39.20;32.80
51029;DHT22;37054;52.054;8.600;2023-07-28T14:25:48;39.40;32.90
51029;DHT22;37054;52.054;8.600;2023-07-28T14:28:14;39.50;32.30
51029;DHT22;37054;52.054;8.600;2023-07-28T14:30:39;39.20;32.40
51029;DHT22;37054;52.054;8.600;2023-07-28T14:33:05;38.80;32.30
51029;DHT22;37054;52.054;8.600;2023-07-28T14:35:30;38.40;33.10
51029;DHT22;37054;52.054;8.600;2023-07-28T14:37:55;38.00;33.20
51029;DHT22;37054;52.054;8.600;2023-07-28T14:40:21;37.70;33.90
51029;DHT22;37054;52.054;8.600;2023-07-28T14:42:46;37.60;34.40
51029;DHT22;37054;52.054;8.600;2023-07-28T14:45:12;37.40;34.30
51029;DHT22;37054;52.054;8.600;2023-07-28T14:47:37;37.20;34.50
51029;DHT22;37054;52.054;8.600;2023-07-28T14:50:03;37.00;34.60
51029;DHT22;37054;52.054;8.600;2023-07-28T14:52:28;36.90;35.20
51029;DHT22;37054;52.054;8.600;2023-07-28T14:54:54;36.80;35.30
51029;DHT22;37054;52.054;8.600;2023-07-28T14:57:19;36.80;35.00
51029;DHT22;37054;52.054;8.600;2023-07-28T14:59:45;36.60;35.00
51029;DHT22;37054;52.054;8.600;2023-07-28T15:02:10;36.50;35.10
51029;DHT22;37054;52.054;8.600;2023-07-28T15:04:38;36.30;34.80
51029;DHT22;37054;52.054;8.600;2023-07-28T15:07:04;36.10;35.20
51029;DHT22;37054;52.054;8.600;2023-07-28T15:09:30;36.00;35.30
51029;DHT22;37054;52.054;8.600;2023-07-28T15:11:55;35.80;35.40
51029;DHT22;37054;52.054;8.600;2023-07-28T15:14:20;35.70;35.70
51029;DHT22;37054;52.054;8.600;2023-07-28T15:16:46;35.60;35.60
51029;DHT22;37054;52.054;8.600;2023-07-28T15:19:11;35.40;35.50
51029;DHT22;37054;52.054;8.600;2023-07-28T15:21:37;35.30;35.70
51029;DHT22;37054;52.054;8.600;2023-07-28T15:24:02;35.10;35.80
51029;DHT22;37054;52.054;8.600;2023-07-28T15:26:28;35.00;35.90
51029;DHT22;37054;52.054;8.600;2023-07-28T15:28:55;34.80;36.20